sensor_id;sensor_type;location;lat;lon;timestamp;temperature;humidity
9466;DHT22;4771;48.726;9.006;2023-02-28T00:01:30;0.10;70.30
9466;DHT22;4771;48.726;9.006;2023-02-28T00:03:57;0.10;70.10
9466;DHT22;4771;48.726;9.006;2023-02-28T00:06:24;0.10;70.30
9466;DHT22;4771;48.726;9.006;2023-02-28T00:08:51;0.20;70.40
9466;DHT22;4771;48.726;9.006;2023-02-28T00:11:18;0.10;70.50
9466;DHT22;4771;48.726;9.006;2023-02-28T00:13:46;0.00;70.70
9466;DHT22;4771;48.726;9.006;2023-02-28T00:16:17;0.00;71.40
9466;DHT22;4771;48.726;9.006;2023-02-28T00:18:45;-0.10;71.60
9466;DHT22;4771;48.726;9.006;2023-02-28T00:21:13;-0.30;72.00
9466;DHT22;4771;48.726;9.006;2023-02-28T00:23:40;-0.20;72.90
9466;DHT22;4771;48.726;9.006;2023-02-28T00:26:06;-0.30;73.20
9466;DHT22;4771;48.726;9.006;2023-02-28T00:28:33;-0.20;73.50
9466;DHT22;4771;48.726;9.006;2023-02-28T00:31:00;0.20;74.20
9466;DHT22;4771;48.726;9.006;2023-02-28T00:33:28;-0.30;73.80
9466;DHT22;4771;48.726;9.006;2023-02-28T00:36:07;-0.20;74.50
9466;DHT22;4771;48.726;9.006;2023-02-28T00:38:34;-0.20;74.60
9466;DHT22;4771;48.726;9.006;2023-02-28T00:41:01;-0.20;75.30
9466;DHT22;4771;48.726;9.006;2023-02-28T00:43:31;-0.10;75.20
9466;DHT22;4771;48.726;9.006;2023-02-28T00:45:58;-0.10;74.80
9466;DHT22;4771;48.726;9.006;2023-02-28T00:48:25;-0.10;75.30
9466;DHT22;4771;48.726;9.006;2023-02-28T00:50:53;-0.10;75.30
9466;DHT22;4771;48.726;9.006;2023-02-28T00:53:21;-0.10;75.30
9466;DHT22;4771;48.726;9.006;2023-02-28T00:55:48;-0.20;75.70
9466;DHT22;4771;48.726;9.006;2023-02-28T00:58:15;-0.30;75.90
9466;DHT22;4771;48.726;9.006;2023-02-28T01:00:42;-0.20;76.70
9466;DHT22;4771;48.726;9.006;2023-02-28T01:03:14;-0.20;76.40
9466;DHT22;4771;48.726;9.006;2023-02-28T01:05:41;-0.20;76.40
9466;DHT22;4771;48.726;9.006;2023-02-28T01:08:10;-0.10;76.90
9466;DHT22;4771;48.726;9.006;2023-02-28T01:10:36;-0.10;77.10
9466;DHT22;4771;48.726;9.006;2023-02-28T01:13:04;-0.10;77.00
9466;DHT22;4771;48.726;9.006;2023-02-28T01:15:31;-0.30;78.00
9466;DHT22;4771;48.726;9.006;2023-02-28T01:17:58;-0.30;78.40
9466;DHT22;4771;48.726;9.006;2023-02-28T01:20:25;-0.20;79.00
9466;DHT22;4771;48.726;9.006;2023-02-28T01:22:51;-0.20;79.00
9466;DHT22;4771;48.726;9.006;2023-02-28T01:25:20;-0.20;79.10
9466;DHT22;4771;48.726;9.006;2023-02-28T01:27:46;-0.30;80.30
9466;DHT22;4771;48.726;9.006;2023-02-28T01:30:13;-0.70;81.90
9466;DHT22;4771;48.726;9.006;2023-02-28T01:32:40;-0.50;82.10
9466;DHT22;4771;48.726;9.006;2023-02-28T01:35:08;-0.50;83.30
9466;DHT22;4771;48.726;9.006;2023-02-28T01:37:35;-0.50;83.80
9466;DHT22;4771;48.726;9.006;2023-02-28T01:40:02;-0.50;83.80
9466;DHT22;4771;48.726;9.006;2023-02-28T01:42:30;-0.40;84.10
9466;DHT22;4771;48.726;9.006;2023-02-28T01:45:00;0.20;85.20
9466;DHT22;4771;48.726;9.006;2023-02-28T01:47:30;-0.30;84.80
9466;DHT22;4771;48.726;9.006;2023-02-28T01:49:58;-0.40;85.30
9466;DHT22;4771;48.726;9.006;2023-02-28T01:52:26;-0.40;85.40
9466;DHT22;4771;48.726;9.006;2023-02-28T01:54:56;-0.50;86.70
9466;DHT22;4771;48.726;9.006;2023-02-28T01:57:28;-0.50;87.40
9466;DHT22;4771;48.726;9.006;2023-02-28T02:00:00;-0.50;88.30
9466;DHT22;4771;48.726;9.006;2023-02-28T02:02:32;-0.60;89.70
9466;DHT22;4771;48.726;9.006;2023-02-28T02:05:06;-0.60;90.20
9466;DHT22;4771;48.726;9.006;2023-02-28T02:07:36;-0.60;90.50
9466;DHT22;4771;48.726;9.006;2023-02-28T02:10:09;-0.60;90.80
9466;DHT22;4771;48.726;9.006;2023-02-28T02:12:54;-0.80;91.60
9466;DHT22;4771;48.726;9.006;2023-02-28T02:15:29;-0.80;91.80
9466;DHT22;4771;48.726;9.006;2023-02-28T02:18:03;-0.50;92.70
9466;DHT22;4771;48.726;9.006;2023-02-28T02:20:49;-0.70;92.70
9466;DHT22;4771;48.726;9.006;2023-02-28T02:26:55;-0.80;93.80
9466;DHT22;4771;48.726;9.006;2023-02-28T02:30:00;-0.80;94.60
9466;DHT22;4771;48.726;9.006;2023-02-28T02:33:04;-0.70;94.70
9466;DHT22;4771;48.726;9.006;2023-02-28T02:35:40;-0.80;95.90
9466;DHT22;4771;48.726;9.006;2023-02-28T02:38:10;-0.70;95.70
9466;DHT22;4771;48.726;9.006;2023-02-28T02:40:45;-0.70;95.90
9466;DHT22;4771;48.726;9.006;2023-02-28T02:43:18;-0.60;96.10
9466;DHT22;4771;48.726;9.006;2023-02-28T02:45:50;-0.60;96.20
9466;DHT22;4771;48.726;9.006;2023-02-28T02:48:23;-0.50;96.30
9466;DHT22;4771;48.726;9.006;2023-02-28T02:50:55;-0.60;96.80
9466;DHT22;4771;48.726;9.006;2023-02-28T02:53:27;-0.60;97.10
9466;DHT22;4771;48.726;9.006;2023-02-28T02:55:56;-0.50;97.20
9466;DHT22;4771;48.726;9.006;2023-02-28T02:58:29;-0.50;97.20
9466;DHT22;4771;48.726;9.006;2023-02-28T03:00:59;-0.50;97.50
9466;DHT22;4771;48.726;9.006;2023-02-28T03:03:28;-0.70;98.00
9466;DHT22;4771;48.726;9.006;2023-02-28T03:05:59;-0.60;98.40
9466;DHT22;4771;48.726;9.006;2023-02-28T03:08:27;-0.80;98.70
9466;DHT22;4771;48.726;9.006;2023-02-28T03:10:56;-0.90;99.50
9466;DHT22;4771;48.726;9.006;2023-02-28T03:13:50;-0.80;99.90
9466;DHT22;4771;48.726;9.006;2023-02-28T03:16:34;-0.70;99.90
9466;DHT22;4771;48.726;9.006;2023-02-28T03:19:11;-0.60;99.90
9466;DHT22;4771;48.726;9.006;2023-02-28T03:21:49;-0.60;99.90
9466;DHT22;4771;48.726;9.006;2023-02-28T03:24:23;-0.60;99.90
9466;DHT22;4771;48.726;9.006;2023-02-28T03:26:58;-0.70;99.90
9466;DHT22;4771;48.726;9.006;2023-02-28T03:29:31;-0.60;99.90
9466;DHT22;4771;48.726;9.006;2023-02-28T03:32:03;-0.70;99.90
9466;DHT22;4771;48.726;9.006;2023-02-28T03:34:35;-0.60;99.90
9466;DHT22;4771;48.726;9.006;2023-02-28T03:37:08;-0.60;99.90
9466;DHT22;4771;48.726;9.006;2023-02-28T03:39:38;-0.50;99.90
9466;DHT22;4771;48.726;9.006;2023-02-28T03:42:09;-0.50;99.90
9466;DHT22;4771;48.726;9.006;2023-02-28T03:44:40;-0.50;99.90
9466;DHT22;4771;48.726;9.006;2023-02-28T03:47:10;-0.70;99.90
9466;DHT22;4771;48.726;9.006;2023-02-28T03:49:42;-0.60;99.90
9466;DHT22;4771;48.726;9.006;2023-02-28T03:52:11;-0.70;99.90
9466;DHT22;4771;48.726;9.006;2023-02-28T03:54:43;-0.60;99.90
9466;DHT22;4771;48.726;9.006;2023-02-28T03:57:15;-0.60;99.90
9466;DHT22;4771;48.726;9.006;2023-02-28T03:59:49;-0.50;99.90
9466;DHT22;4771;48.726;9.006;2023-02-28T04:02:19;-0.50;99.90
9466;DHT22;4771;48.726;9.006;2023-02-28T04:04:46;-0.70;99.90
9466;DHT22;4771;48.726;9.006;2023-02-28T04:07:15;-0.60;99.90
9466;DHT22;4771;48.726;9.006;2023-02-28T04:09:42;-0.60;99.90
9466;DHT22;4771;48.726;9.006;2023-02-28T04:12:09;-0.50;99.90
9466;DHT22;4771;48.726;9.006;2023-02-28T04:14:36;-0.30;99.90
9466;DHT22;4771;48.726;9.006;2023-02-28T04:17:03;-0.40;99.90
9466;DHT22;4771;48.726;9.006;2023-02-28T04:19:30;-0.40;99.90
9466;DHT22;4771;48.726;9.006;2023-02-28T04:21:57;-0.40;99.90
9466;DHT22;4771;48.726;9.006;2023-02-28T04:24:27;-0.30;99.90
9466;DHT22;4771;48.726;9.006;2023-02-28T04:26:56;-0.30;99.90
9466;DHT22;4771;48.726;9.006;2023-02-28T04:29:25;-0.20;99.90
9466;DHT22;4771;48.726;9.006;2023-02-28T04:31:52;-0.40;99.90
9466;DHT22;4771;48.726;9.006;2023-02-28T04:34:20;-0.40;99.90
9466;DHT22;4771;48.726;9.006;2023-02-28T04:36:47;-0.50;99.90
9466;DHT22;4771;48.726;9.006;2023-02-28T04:39:16;-0.40;99.90
9466;DHT22;4771;48.726;9.006;2023-02-28T04:41:45;-0.40;99.90
9466;DHT22;4771;48.726;9.006;2023-02-28T04:44:12;-0.40;99.90
9466;DHT22;4771;48.726;9.006;2023-02-28T04:46:39;-0.40;99.90
9466;DHT22;4771;48.726;9.006;2023-02-28T04:49:06;-0.40;99.90
9466;DHT22;4771;48.726;9.006;2023-02-28T04:51:33;-0.40;99.90
9466;DHT22;4771;48.726;9.006;2023-02-28T04:54:00;-0.50;99.90
9466;DHT22;4771;48.726;9.006;2023-02-28T04:56:27;-0.50;99.90
9466;DHT22;4771;48.726;9.006;2023-02-28T04:58:55;-0.40;99.90
9466;DHT22;4771;48.726;9.006;2023-02-28T05:01:23;-0.40;99.90
9466;DHT22;4771;48.726;9.006;2023-02-28T05:03:52;-0.30;99.90
9466;DHT22;4771;48.726;9.006;2023-02-28T05:06:21;-0.20;99.90
9466;DHT22;4771;48.726;9.006;2023-02-28T05:08:49;-0.20;99.90
9466;DHT22;4771;48.726;9.006;2023-02-28T05:11:18;-0.10;99.90
9466;DHT22;4771;48.726;9.006;2023-02-28T05:13:45;-0.20;99.90
9466;DHT22;4771;48.726;9.006;2023-02-28T05:16:13;-0.20;99.90
9466;DHT22;4771;48.726;9.006;2023-02-28T05:18:40;-0.20;99.90
9466;DHT22;4771;48.726;9.006;2023-02-28T05:21:25;-0.20;99.90
9466;DHT22;4771;48.726;9.006;2023-02-28T05:23:52;-0.50;99.90
9466;DHT22;4771;48.726;9.006;2023-02-28T05:26:19;-0.40;99.90
9466;DHT22;4771;48.726;9.006;2023-02-28T05:28:46;-0.40;99.90
9466;DHT22;4771;48.726;9.006;2023-02-28T05:31:15;-0.40;99.90
9466;DHT22;4771;48.726;9.006;2023-02-28T05:33:42;-0.40;99.90
9466;DHT22;4771;48.726;9.006;2023-02-28T05:36:09;-0.40;99.90
9466;DHT22;4771;48.726;9.006;2023-02-28T05:38:36;-0.40;99.90
9466;DHT22;4771;48.726;9.006;2023-02-28T05:41:05;-1.40;99.90
9466;DHT22;4771;48.726;9.006;2023-02-28T05:43:32;-0.70;99.90
9466;DHT22;4771;48.726;9.006;2023-02-28T05:46:03;-0.60;99.90
9466;DHT22;4771;48.726;9.006;2023-02-28T05:48:31;-0.60;99.90
9466;DHT22;4771;48.726;9.006;2023-02-28T05:50:58;-0.60;99.90
9466;DHT22;4771;48.726;9.006;2023-02-28T05:53:25;-0.50;99.90
9466;DHT22;4771;48.726;9.006;2023-02-28T05:55:52;-0.40;99.90
9466;DHT22;4771;48.726;9.006;2023-02-28T05:58:19;-0.50;99.90
9466;DHT22;4771;48.726;9.006;2023-02-28T06:00:46;-0.50;99.90
9466;DHT22;4771;48.726;9.006;2023-02-28T06:03:13;-0.40;99.90
9466;DHT22;4771;48.726;9.006;2023-02-28T06:05:41;-0.30;99.90
9466;DHT22;4771;48.726;9.006;2023-02-28T06:08:08;-0.30;99.90
9466;DHT22;4771;48.726;9.006;2023-02-28T06:10:35;-0.30;99.90
9466;DHT22;4771;48.726;9.006;2023-02-28T06:13:02;-0.30;99.90
9466;DHT22;4771;48.726;9.006;2023-02-28T06:15:29;-0.30;99.90
9466;DHT22;4771;48.726;9.006;2023-02-28T06:17:57;-0.20;99.90
9466;DHT22;4771;48.726;9.006;2023-02-28T06:20:25;-0.30;99.90
9466;DHT22;4771;48.726;9.006;2023-02-28T06:22:56;-0.60;99.90
9466;DHT22;4771;48.726;9.006;2023-02-28T06:25:24;-0.30;99.90
9466;DHT22;4771;48.726;9.006;2023-02-28T06:27:51;-0.30;99.90
9466;DHT22;4771;48.726;9.006;2023-02-28T06:30:17;-0.30;99.90
9466;DHT22;4771;48.726;9.006;2023-02-28T06:32:49;-0.40;99.90
9466;DHT22;4771;48.726;9.006;2023-02-28T06:35:16;-0.40;99.90
9466;DHT22;4771;48.726;9.006;2023-02-28T06:37:42;-0.30;99.90
9466;DHT22;4771;48.726;9.006;2023-02-28T06:40:12;-0.10;99.90
9466;DHT22;4771;48.726;9.006;2023-02-28T06:42:39;-0.20;99.90
9466;DHT22;4771;48.726;9.006;2023-02-28T06:45:07;0.00;99.90
9466;DHT22;4771;48.726;9.006;2023-02-28T06:47:35;0.00;99.90
9466;DHT22;4771;48.726;9.006;2023-02-28T06:50:02;1.30;99.90
9466;DHT22;4771;48.726;9.006;2023-02-28T06:52:29;0.10;99.90
9466;DHT22;4771;48.726;9.006;2023-02-28T06:54:56;0.10;99.90
9466;DHT22;4771;48.726;9.006;2023-02-28T06:57:29;0.00;99.90
9466;DHT22;4771;48.726;9.006;2023-02-28T06:59:58;-0.20;99.90
9466;DHT22;4771;48.726;9.006;2023-02-28T07:02:25;-0.20;99.90
9466;DHT22;4771;48.726;9.006;2023-02-28T07:04:52;-0.20;99.90
9466;DHT22;4771;48.726;9.006;2023-02-28T07:07:19;-0.20;99.90
9466;DHT22;4771;48.726;9.006;2023-02-28T07:09:45;-0.10;99.90
9466;DHT22;4771;48.726;9.006;2023-02-28T07:12:12;-0.90;99.90
9466;DHT22;4771;48.726;9.006;2023-02-28T07:14:41;0.00;99.90
9466;DHT22;4771;48.726;9.006;2023-02-28T07:17:08;0.10;99.90
9466;DHT22;4771;48.726;9.006;2023-02-28T07:19:36;0.00;99.90
9466;DHT22;4771;48.726;9.006;2023-02-28T07:22:03;0.00;99.90
9466;DHT22;4771;48.726;9.006;2023-02-28T07:24:30;-0.10;99.90
9466;DHT22;4771;48.726;9.006;2023-02-28T07:26:57;-0.20;99.90
9466;DHT22;4771;48.726;9.006;2023-02-28T07:29:24;-0.30;99.90
9466;DHT22;4771;48.726;9.006;2023-02-28T07:31:53;-0.20;99.90
9466;DHT22;4771;48.726;9.006;2023-02-28T07:34:20;-0.20;99.90
9466;DHT22;4771;48.726;9.006;2023-02-28T07:36:46;-0.10;99.90
9466;DHT22;4771;48.726;9.006;2023-02-28T07:39:13;0.10;99.90
9466;DHT22;4771;48.726;9.006;2023-02-28T07:41:40;-0.10;99.90
9466;DHT22;4771;48.726;9.006;2023-02-28T07:44:09;-0.30;99.90
9466;DHT22;4771;48.726;9.006;2023-02-28T07:46:37;-0.10;99.90
9466;DHT22;4771;48.726;9.006;2023-02-28T07:49:05;-0.10;99.90
9466;DHT22;4771;48.726;9.006;2023-02-28T07:51:32;-0.10;99.90
9466;DHT22;4771;48.726;9.006;2023-02-28T07:53:59;0.00;99.90
9466;DHT22;4771;48.726;9.006;2023-02-28T07:56:26;0.00;99.90
9466;DHT22;4771;48.726;9.006;2023-02-28T07:58:53;0.00;99.90
9466;DHT22;4771;48.726;9.006;2023-02-28T08:01:20;0.00;99.90
9466;DHT22;4771;48.726;9.006;2023-02-28T08:03:47;-0.10;99.90
9466;DHT22;4771;48.726;9.006;2023-02-28T08:06:20;-0.10;99.90
9466;DHT22;4771;48.726;9.006;2023-02-28T08:08:48;0.50;99.90
9466;DHT22;4771;48.726;9.006;2023-02-28T08:11:15;-0.30;99.90
9466;DHT22;4771;48.726;9.006;2023-02-28T08:13:43;-0.40;99.90
9466;DHT22;4771;48.726;9.006;2023-02-28T08:16:11;-0.30;99.90
9466;DHT22;4771;48.726;9.006;2023-02-28T08:18:39;-0.30;99.90
9466;DHT22;4771;48.726;9.006;2023-02-28T08:21:07;-0.20;99.90
9466;DHT22;4771;48.726;9.006;2023-02-28T08:23:35;-0.20;99.90
9466;DHT22;4771;48.726;9.006;2023-02-28T08:26:03;0.00;99.90
9466;DHT22;4771;48.726;9.006;2023-02-28T08:28:30;-0.10;99.90
9466;DHT22;4771;48.726;9.006;2023-02-28T08:30:56;-0.10;99.90
9466;DHT22;4771;48.726;9.006;2023-02-28T08:33:24;-0.10;99.90
9466;DHT22;4771;48.726;9.006;2023-02-28T08:35:53;0.00;99.90
9466;DHT22;4771;48.726;9.006;2023-02-28T08:38:20;0.20;99.90
9466;DHT22;4771;48.726;9.006;2023-02-28T08:40:49;0.10;99.90
9466;DHT22;4771;48.726;9.006;2023-02-28T08:43:16;0.10;99.90
9466;DHT22;4771;48.726;9.006;2023-02-28T08:45:42;0.10;99.90
9466;DHT22;4771;48.726;9.006;2023-02-28T08:48:09;0.10;99.90
9466;DHT22;4771;48.726;9.006;2023-02-28T08:50:36;0.00;99.90
9466;DHT22;4771;48.726;9.006;2023-02-28T08:53:03;0.10;99.90
9466;DHT22;4771;48.726;9.006;2023-02-28T08:55:30;0.20;99.90
9466;DHT22;4771;48.726;9.006;2023-02-28T08:57:58;-0.10;99.90
9466;DHT22;4771;48.726;9.006;2023-02-28T09:00:26;-0.10;99.90
9466;DHT22;4771;48.726;9.006;2023-02-28T09:02:53;-0.10;99.90
9466;DHT22;4771;48.726;9.006;2023-02-28T09:05:20;-0.10;99.90
9466;DHT22;4771;48.726;9.006;2023-02-28T09:07:47;0.10;99.90
9466;DHT22;4771;48.726;9.006;2023-02-28T09:10:14;0.20;99.90
9466;DHT22;4771;48.726;9.006;2023-02-28T09:12:41;0.30;99.90
9466;DHT22;4771;48.726;9.006;2023-02-28T09:15:10;0.20;99.90
9466;DHT22;4771;48.726;9.006;2023-02-28T09:17:37;0.30;99.90
9466;DHT22;4771;48.726;9.006;2023-02-28T09:20:05;0.20;99.90
9466;DHT22;4771;48.726;9.006;2023-02-28T09:22:32;0.30;99.90
9466;DHT22;4771;48.726;9.006;2023-02-28T09:24:59;1.60;99.90
9466;DHT22;4771;48.726;9.006;2023-02-28T09:27:25;0.30;99.90
9466;DHT22;4771;48.726;9.006;2023-02-28T09:29:52;0.30;99.90
9466;DHT22;4771;48.726;9.006;2023-02-28T09:32:21;0.50;99.90
9466;DHT22;4771;48.726;9.006;2023-02-28T09:34:47;0.60;99.90
9466;DHT22;4771;48.726;9.006;2023-02-28T09:37:14;0.60;99.90
9466;DHT22;4771;48.726;9.006;2023-02-28T09:39:41;0.60;99.90
9466;DHT22;4771;48.726;9.006;2023-02-28T09:42:18;0.40;99.90
9466;DHT22;4771;48.726;9.006;2023-02-28T09:44:47;0.30;99.90
9466;DHT22;4771;48.726;9.006;2023-02-28T09:47:27;0.40;99.90
9466;DHT22;4771;48.726;9.006;2023-02-28T09:50:05;0.40;99.90
9466;DHT22;4771;48.726;9.006;2023-02-28T09:52:33;0.50;99.90
9466;DHT22;4771;48.726;9.006;2023-02-28T09:55:05;0.40;99.90
9466;DHT22;4771;48.726;9.006;2023-02-28T09:57:41;0.50;99.90
9466;DHT22;4771;48.726;9.006;2023-02-28T10:00:15;0.40;99.90
9466;DHT22;4771;48.726;9.006;2023-02-28T10:03:06;0.40;99.90
9466;DHT22;4771;48.726;9.006;2023-02-28T10:05:41;0.40;99.90
9466;DHT22;4771;48.726;9.006;2023-02-28T10:08:13;0.50;99.90
9466;DHT22;4771;48.726;9.006;2023-02-28T10:10:42;0.60;99.90
9466;DHT22;4771;48.726;9.006;2023-02-28T10:13:17;0.70;99.90
9466;DHT22;4771;48.726;9.006;2023-02-28T10:15:49;0.70;99.90
9466;DHT22;4771;48.726;9.006;2023-02-28T10:18:21;0.80;99.90
9466;DHT22;4771;48.726;9.006;2023-02-28T10:20:51;0.90;99.90
9466;DHT22;4771;48.726;9.006;2023-02-28T10:23:22;0.90;99.90
9466;DHT22;4771;48.726;9.006;2023-02-28T10:25:54;0.90;99.90
9466;DHT22;4771;48.726;9.006;2023-02-28T10:28:21;0.90;99.90
9466;DHT22;4771;48.726;9.006;2023-02-28T10:30:49;0.90;99.90
9466;DHT22;4771;48.726;9.006;2023-02-28T10:33:23;0.90;99.90
9466;DHT22;4771;48.726;9.006;2023-02-28T10:35:52;0.90;99.90
9466;DHT22;4771;48.726;9.006;2023-02-28T10:38:22;1.10;99.90
9466;DHT22;4771;48.726;9.006;2023-02-28T10:40:50;1.00;99.90
9466;DHT22;4771;48.726;9.006;2023-02-28T10:43:21;0.90;99.90
9466;DHT22;4771;48.726;9.006;2023-02-28T10:45:56;1.10;99.90
9466;DHT22;4771;48.726;9.006;2023-02-28T10:48:33;1.00;99.90
9466;DHT22;4771;48.726;9.006;2023-02-28T10:51:04;2.00;99.90
9466;DHT22;4771;48.726;9.006;2023-02-28T10:53:37;1.10;99.90
9466;DHT22;4771;48.726;9.006;2023-02-28T10:56:12;1.10;99.90
9466;DHT22;4771;48.726;9.006;2023-02-28T10:58:55;1.20;99.90
9466;DHT22;4771;48.726;9.006;2023-02-28T11:01:27;1.20;99.90
9466;DHT22;4771;48.726;9.006;2023-02-28T11:04:01;1.20;99.90
9466;DHT22;4771;48.726;9.006;2023-02-28T11:06:31;1.30;99.90
9466;DHT22;4771;48.726;9.006;2023-02-28T11:09:00;1.40;99.90
9466;DHT22;4771;48.726;9.006;2023-02-28T11:11:31;1.40;99.90
9466;DHT22;4771;48.726;9.006;2023-02-28T11:14:19;1.60;99.90
9466;DHT22;4771;48.726;9.006;2023-02-28T11:16:47;1.70;99.90
9466;DHT22;4771;48.726;9.006;2023-02-28T11:19:19;1.70;99.90
9466;DHT22;4771;48.726;9.006;2023-02-28T11:21:53;1.80;99.90
9466;DHT22;4771;48.726;9.006;2023-02-28T11:24:24;2.00;99.90
9466;DHT22;4771;48.726;9.006;2023-02-28T11:26:52;2.10;99.90
9466;DHT22;4771;48.726;9.006;2023-02-28T11:29:21;2.20;99.90
9466;DHT22;4771;48.726;9.006;2023-02-28T11:32:13;2.30;99.90
9466;DHT22;4771;48.726;9.006;2023-02-28T11:34:43;2.40;99.90
9466;DHT22;4771;48.726;9.006;2023-02-28T11:37:14;3.00;99.90
9466;DHT22;4771;48.726;9.006;2023-02-28T11:39:42;2.60;99.90
9466;DHT22;4771;48.726;9.006;2023-02-28T11:42:28;2.60;99.90
9466;DHT22;4771;48.726;9.006;2023-02-28T11:45:07;2.50;99.80
9466;DHT22;4771;48.726;9.006;2023-02-28T11:47:41;2.50;99.40
9466;DHT22;4771;48.726;9.006;2023-02-28T11:50:20;2.40;99.60
9466;DHT22;4771;48.726;9.006;2023-02-28T11:52:53;2.60;99.90
9466;DHT22;4771;48.726;9.006;2023-02-28T11:55:24;2.90;99.50
9466;DHT22;4771;48.726;9.006;2023-02-28T11:57:59;3.20;98.80
9466;DHT22;4771;48.726;9.006;2023-02-28T12:00:38;3.20;98.00
9466;DHT22;4771;48.726;9.006;2023-02-28T12:03:16;3.20;97.50
9466;DHT22;4771;48.726;9.006;2023-02-28T12:05:52;3.10;97.00
9466;DHT22;4771;48.726;9.006;2023-02-28T12:08:34;3.30;98.00
9466;DHT22;4771;48.726;9.006;2023-02-28T12:11:12;3.70;98.00
9466;DHT22;4771;48.726;9.006;2023-02-28T12:13:48;3.90;95.80
9466;DHT22;4771;48.726;9.006;2023-02-28T12:16:31;4.20;95.60
9466;DHT22;4771;48.726;9.006;2023-02-28T12:19:26;4.40;93.90
9466;DHT22;4771;48.726;9.006;2023-02-28T12:22:17;4.60;94.10
9466;DHT22;4771;48.726;9.006;2023-02-28T12:25:00;4.80;93.50
9466;DHT22;4771;48.726;9.006;2023-02-28T12:27:29;5.00;92.30
9466;DHT22;4771;48.726;9.006;2023-02-28T12:30:00;5.10;92.30
9466;DHT22;4771;48.726;9.006;2023-02-28T12:32:32;5.20;91.30
9466;DHT22;4771;48.726;9.006;2023-02-28T12:35:03;5.20;90.70
9466;DHT22;4771;48.726;9.006;2023-02-28T12:37:36;5.40;92.10
9466;DHT22;4771;48.726;9.006;2023-02-28T12:40:12;5.50;90.90
9466;DHT22;4771;48.726;9.006;2023-02-28T12:42:42;5.30;88.20
9466;DHT22;4771;48.726;9.006;2023-02-28T12:45:15;5.30;87.70
9466;DHT22;4771;48.726;9.006;2023-02-28T12:47:46;5.30;87.80
9466;DHT22;4771;48.726;9.006;2023-02-28T12:50:16;5.20;86.30
9466;DHT22;4771;48.726;9.006;2023-02-28T12:52:50;5.20;87.90
9466;DHT22;4771;48.726;9.006;2023-02-28T12:55:26;5.30;89.40
9466;DHT22;4771;48.726;9.006;2023-02-28T12:58:01;5.30;86.60
9466;DHT22;4771;48.726;9.006;2023-02-28T13:00:35;5.30;86.40
9466;DHT22;4771;48.726;9.006;2023-02-28T13:03:34;5.40;85.70
9466;DHT22;4771;48.726;9.006;2023-02-28T13:06:22;5.50;85.50
9466;DHT22;4771;48.726;9.006;2023-02-28T13:09:02;5.50;83.50
9466;DHT22;4771;48.726;9.006;2023-02-28T13:11:34;5.70;84.20
9466;DHT22;4771;48.726;9.006;2023-02-28T13:14:06;5.70;82.60
9466;DHT22;4771;48.726;9.006;2023-02-28T13:16:57;5.70;80.40
9466;DHT22;4771;48.726;9.006;2023-02-28T13:19:26;5.60;80.40
9466;DHT22;4771;48.726;9.006;2023-02-28T13:21:55;5.60;79.20
9466;DHT22;4771;48.726;9.006;2023-02-28T13:24:44;5.60;81.10
9466;DHT22;4771;48.726;9.006;2023-02-28T13:27:35;5.70;78.20
9466;DHT22;4771;48.726;9.006;2023-02-28T13:33:27;5.60;80.10
9466;DHT22;4771;48.726;9.006;2023-02-28T13:36:22;5.70;77.80
9466;DHT22;4771;48.726;9.006;2023-02-28T13:38:50;5.70;78.70
9466;DHT22;4771;48.726;9.006;2023-02-28T13:41:46;5.70;76.30
9466;DHT22;4771;48.726;9.006;2023-02-28T13:44:17;5.70;77.80
9466;DHT22;4771;48.726;9.006;2023-02-28T13:47:19;5.70;76.00
9466;DHT22;4771;48.726;9.006;2023-02-28T13:49:47;5.60;75.50
9466;DHT22;4771;48.726;9.006;2023-02-28T13:52:18;5.60;76.70
9466;DHT22;4771;48.726;9.006;2023-02-28T13:55:03;5.50;75.90
9466;DHT22;4771;48.726;9.006;2023-02-28T13:57:48;5.40;77.20
9466;DHT22;4771;48.726;9.006;2023-02-28T14:00:34;5.40;77.00
9466;DHT22;4771;48.726;9.006;2023-02-28T14:03:33;5.50;77.10
9466;DHT22;4771;48.726;9.006;2023-02-28T14:06:15;5.70;76.90
9466;DHT22;4771;48.726;9.006;2023-02-28T14:08:54;5.70;75.20
9466;DHT22;4771;48.726;9.006;2023-02-28T14:11:33;5.70;75.60
9466;DHT22;4771;48.726;9.006;2023-02-28T14:14:02;5.60;74.30
9466;DHT22;4771;48.726;9.006;2023-02-28T14:16:39;5.50;74.50
9466;DHT22;4771;48.726;9.006;2023-02-28T14:19:11;5.70;73.70
9466;DHT22;4771;48.726;9.006;2023-02-28T14:21:47;5.70;75.20
9466;DHT22;4771;48.726;9.006;2023-02-28T14:24:28;5.80;74.50
9466;DHT22;4771;48.726;9.006;2023-02-28T14:27:05;5.80;72.80
9466;DHT22;4771;48.726;9.006;2023-02-28T14:29:53;5.90;72.90
9466;DHT22;4771;48.726;9.006;2023-02-28T14:32:31;5.80;73.30
9466;DHT22;4771;48.726;9.006;2023-02-28T14:35:04;5.80;72.80
9466;DHT22;4771;48.726;9.006;2023-02-28T14:37:34;5.70;73.30
9466;DHT22;4771;48.726;9.006;2023-02-28T14:40:11;5.80;73.60
9466;DHT22;4771;48.726;9.006;2023-02-28T14:42:38;5.80;73.20
9466;DHT22;4771;48.726;9.006;2023-02-28T14:45:18;6.00;73.00
9466;DHT22;4771;48.726;9.006;2023-02-28T14:47:46;6.00;72.50
9466;DHT22;4771;48.726;9.006;2023-02-28T14:50:29;6.00;73.20
9466;DHT22;4771;48.726;9.006;2023-02-28T14:52:56;6.10;71.40
9466;DHT22;4771;48.726;9.006;2023-02-28T14:55:26;6.00;71.00
9466;DHT22;4771;48.726;9.006;2023-02-28T14:57:54;5.90;70.10
9466;DHT22;4771;48.726;9.006;2023-02-28T15:00:24;5.80;69.50
9466;DHT22;4771;48.726;9.006;2023-02-28T15:02:54;5.70;69.50
9466;DHT22;4771;48.726;9.006;2023-02-28T15:05:27;5.60;70.70
9466;DHT22;4771;48.726;9.006;2023-02-28T15:08:05;5.60;71.70
9466;DHT22;4771;48.726;9.006;2023-02-28T15:10:33;5.50;70.50
9466;DHT22;4771;48.726;9.006;2023-02-28T15:13:02;5.40;71.70
9466;DHT22;4771;48.726;9.006;2023-02-28T15:15:39;5.30;71.80
9466;DHT22;4771;48.726;9.006;2023-02-28T15:18:14;5.30;72.50
9466;DHT22;4771;48.726;9.006;2023-02-28T15:20:43;5.30;71.80
9466;DHT22;4771;48.726;9.006;2023-02-28T15:23:11;5.30;72.00
9466;DHT22;4771;48.726;9.006;2023-02-28T15:25:39;5.20;71.40
9466;DHT22;4771;48.726;9.006;2023-02-28T15:28:12;5.20;72.00
9466;DHT22;4771;48.726;9.006;2023-02-28T15:30:51;5.00;72.30
9466;DHT22;4771;48.726;9.006;2023-02-28T15:33:21;5.00;73.00
9466;DHT22;4771;48.726;9.006;2023-02-28T15:35:49;4.90;73.20
9466;DHT22;4771;48.726;9.006;2023-02-28T15:38:18;5.00;74.40
9466;DHT22;4771;48.726;9.006;2023-02-28T15:40:51;4.90;73.40
9466;DHT22;4771;48.726;9.006;2023-02-28T15:43:25;4.90;74.10
9466;DHT22;4771;48.726;9.006;2023-02-28T15:45:56;5.00;74.10
9466;DHT22;4771;48.726;9.006;2023-02-28T15:48:27;5.00;74.50
9466;DHT22;4771;48.726;9.006;2023-02-28T15:50:56;4.80;73.30
9466;DHT22;4771;48.726;9.006;2023-02-28T15:53:26;4.80;74.60
9466;DHT22;4771;48.726;9.006;2023-02-28T15:55:59;5.00;75.40
9466;DHT22;4771;48.726;9.006;2023-02-28T15:58:26;5.00;75.40
9466;DHT22;4771;48.726;9.006;2023-02-28T16:01:05;4.90;75.30
9466;DHT22;4771;48.726;9.006;2023-02-28T16:03:45;5.00;75.80
9466;DHT22;4771;48.726;9.006;2023-02-28T16:06:35;4.90;75.00
9466;DHT22;4771;48.726;9.006;2023-02-28T16:09:03;5.00;75.20
9466;DHT22;4771;48.726;9.006;2023-02-28T16:11:33;4.90;75.50
9466;DHT22;4771;48.726;9.006;2023-02-28T16:14:00;4.90;75.80
9466;DHT22;4771;48.726;9.006;2023-02-28T16:16:28;4.80;75.70
9466;DHT22;4771;48.726;9.006;2023-02-28T16:18:56;4.90;76.90
9466;DHT22;4771;48.726;9.006;2023-02-28T16:21:24;4.90;77.00
9466;DHT22;4771;48.726;9.006;2023-02-28T16:23:51;4.80;76.10
9466;DHT22;4771;48.726;9.006;2023-02-28T16:26:21;4.70;76.50
9466;DHT22;4771;48.726;9.006;2023-02-28T16:28:49;4.70;76.60
9466;DHT22;4771;48.726;9.006;2023-02-28T16:31:17;4.60;76.80
9466;DHT22;4771;48.726;9.006;2023-02-28T16:33:45;4.60;77.20
9466;DHT22;4771;48.726;9.006;2023-02-28T16:36:20;4.50;77.50
9466;DHT22;4771;48.726;9.006;2023-02-28T16:38:47;4.50;78.50
9466;DHT22;4771;48.726;9.006;2023-02-28T16:41:17;4.50;78.40
9466;DHT22;4771;48.726;9.006;2023-02-28T16:43:46;4.40;78.70